createdAt,value
2018-10-03T00:00:01.705Z,100555.25
2018-10-03T00:00:36.564Z,100553.60
2018-10-03T00:01:11.173Z,100556.15
2018-10-03T00:01:46.013Z,100558.50
2018-10-03T00:02:20.754Z,100555.74
2018-10-03T00:02:55.375Z,100553.72
2018-10-03T00:03:29.984Z,100554.30
2018-10-03T00:04:04.700Z,100555.15
2018-10-03T00:04:39.466Z,100563.19
2018-10-03T00:05:14.307Z,100556.75
2018-10-03T00:05:49.001Z,100558.94
2018-10-03T00:06:24.068Z,100559.75
2018-10-03T00:06:58.667Z,100560.28
2018-10-03T00:07:33.346Z,100567.23
2018-10-03T00:08:08.025Z,100562.47
2018-10-03T00:08:42.732Z,100561.73
2018-10-03T00:09:18.131Z,100558.58
2018-10-03T00:09:52.863Z,100570.50
2018-10-03T00:10:27.921Z,100562.66
2018-10-03T00:11:02.519Z,100555.99
2018-10-03T00:11:36.676Z,100565.09
2018-10-03T00:12:11.383Z,100557.93
2018-10-03T00:12:46.096Z,100564.84
2018-10-03T00:13:20.841Z,100557.24
2018-10-03T00:13:55.506Z,100565.09
2018-10-03T00:14:30.141Z,100565.01
2018-10-03T00:15:04.794Z,100560.08
2018-10-03T00:15:39.594Z,100560.03
2018-10-03T00:16:14.340Z,100551.42
2018-10-03T00:16:49.130Z,100557.93
2018-10-03T00:17:24.011Z,100548.14
2018-10-03T00:17:58.681Z,100553.28
2018-10-03T00:18:33.268Z,100556.15
2018-10-03T00:19:07.932Z,100558.38
2018-10-03T00:19:42.591Z,100554.00
2018-10-03T00:20:17.481Z,100560.47
2018-10-03T00:20:52.312Z,100551.20
2018-10-03T00:21:26.932Z,100553.66
2018-10-03T00:22:01.607Z,100552.20
2018-10-03T00:22:36.269Z,100556.70
2018-10-03T00:23:10.894Z,100552.91
2018-10-03T00:23:45.658Z,100555.76
2018-10-03T00:24:20.504Z,100547.69
2018-10-03T00:24:55.392Z,100553.30
2018-10-03T00:25:30.045Z,100553.42
2018-10-03T00:26:05.638Z,100556.06
2018-10-03T00:26:40.441Z,100561.28
2018-10-03T00:27:15.200Z,100552.05
2018-10-03T00:27:49.945Z,100559.98
2018-10-03T00:28:24.608Z,100563.63
2018-10-03T00:28:59.247Z,100556.63
2018-10-03T00:29:33.875Z,100560.52
2018-10-03T00:30:08.520Z,100563.02
2018-10-03T00:30:43.473Z,100559.98
2018-10-03T00:31:18.147Z,100559.54
2018-10-03T00:31:52.917Z,100560.59
2018-10-03T00:32:27.784Z,100557.48
2018-10-03T00:33:02.420Z,100558.29
2018-10-03T00:33:37.034Z,100557.80
2018-10-03T00:34:11.672Z,100566.14
2018-10-03T00:34:46.421Z,100552.83
2018-10-03T00:35:21.158Z,100547.05
2018-10-03T00:35:55.809Z,100552.67
2018-10-03T00:36:30.420Z,100549.19
2018-10-03T00:37:05.788Z,100556.15
2018-10-03T00:37:40.424Z,100553.20
2018-10-03T00:38:15.335Z,100542.16
2018-10-03T00:38:50.020Z,100557.60
2018-10-03T00:39:24.742Z,100560.19
2018-10-03T00:39:59.730Z,100553.72
2018-10-03T00:40:34.440Z,100555.99
2018-10-03T00:41:09.381Z,100551.63
2018-10-03T00:41:44.147Z,100551.83
2018-10-03T00:42:18.861Z,100554.74
2018-10-03T00:42:53.579Z,100546.49
2018-10-03T00:43:28.214Z,100550.17
2018-10-03T00:44:02.947Z,100546.86
2018-10-03T00:44:37.592Z,100556.73
2018-10-03T00:45:12.314Z,100548.52
2018-10-03T00:45:47.104Z,100554.86
2018-10-03T00:46:21.780Z,100548.19
2018-10-03T00:46:56.429Z,100538.83
2018-10-03T00:47:31.060Z,100544.04
2018-10-03T00:48:06.095Z,100542.26
2018-10-03T00:48:40.720Z,100539.59
2018-10-03T00:49:15.500Z,100534.25
2018-10-03T00:49:50.195Z,100539.47
2018-10-03T00:50:24.853Z,100538.22
2018-10-03T00:50:59.514Z,100536.20
2018-10-03T00:51:34.556Z,100538.34
2018-10-03T00:52:09.212Z,100536.23
2018-10-03T00:52:43.938Z,100536.27
2018-10-03T00:53:18.818Z,100545.65
2018-10-03T00:53:53.479Z,100538.98
2018-10-03T00:54:28.123Z,100541.20
2018-10-03T00:55:02.760Z,100541.61
2018-10-03T00:55:37.382Z,100547.34
2018-10-03T00:56:11.995Z,100546.38
2018-10-03T00:56:46.752Z,100542.86
2018-10-03T00:57:21.943Z,100549.08
2018-10-03T00:57:56.607Z,100549.08
2018-10-03T00:58:31.350Z,100548.32
2018-10-03T00:59:06.668Z,100555.84
2018-10-03T00:59:41.320Z,100550.02
2018-10-03T01:00:16.081Z,100550.38
2018-10-03T01:00:50.921Z,100550.87
2018-10-03T01:01:25.623Z,100556.44
2018-10-03T01:02:00.744Z,100556.13
2018-10-03T01:02:35.456Z,100558.70
2018-10-03T01:03:10.109Z,100560.89
2018-10-03T01:03:44.864Z,100557.70
2018-10-03T01:04:19.589Z,100564.20
2018-10-03T01:04:54.350Z,100559.07
2018-10-03T01:05:29.004Z,100550.62
2018-10-03T01:06:03.629Z,100550.82
2018-10-03T01:06:38.273Z,100558.06
2018-10-03T01:07:12.904Z,100550.70
2018-10-03T01:07:47.695Z,100543.06
2018-10-03T01:08:22.591Z,100556.00
2018-10-03T01:08:57.281Z,100558.02
2018-10-03T01:09:31.940Z,100554.59
2018-10-03T01:10:06.679Z,100555.48
2018-10-03T01:10:41.472Z,100557.53
2018-10-03T01:11:16.214Z,100549.33
2018-10-03T01:11:50.879Z,100556.16
2018-10-03T01:12:25.624Z,100557.30
2018-10-03T01:13:00.278Z,100559.48
2018-10-03T01:13:34.934Z,100559.19
2018-10-03T01:14:09.645Z,100555.06
2018-10-03T01:14:44.326Z,100557.89
2018-10-03T01:15:19.152Z,100551.67
2018-10-03T01:15:54.092Z,100556.48
2018-10-03T01:16:28.770Z,100550.02
2018-10-03T01:17:03.460Z,100557.70
2018-10-03T01:17:38.274Z,100551.88
2018-10-03T01:18:12.966Z,100560.48
2018-10-03T01:18:47.923Z,100554.70
2018-10-03T01:19:23.365Z,100555.15
2018-10-03T01:19:58.339Z,100545.24
2018-10-03T01:20:32.979Z,100561.12
2018-10-03T01:21:07.669Z,100557.24
2018-10-03T01:21:42.360Z,100561.58
2018-10-03T01:22:17.058Z,100556.48
2018-10-03T01:22:51.818Z,100553.89
2018-10-03T01:23:26.777Z,100553.45
2018-10-03T01:24:01.865Z,100551.09
2018-10-03T01:24:36.509Z,100550.24
2018-10-03T01:25:11.161Z,100547.05
2018-10-03T01:25:46.172Z,100549.19
2018-10-03T01:26:20.871Z,100540.26
2018-10-03T01:26:55.520Z,100546.85
2018-10-03T01:27:30.752Z,100554.12
2018-10-03T01:28:05.636Z,100551.31
2018-10-03T01:28:40.288Z,100549.24
2018-10-03T01:29:15.102Z,100547.55
2018-10-03T01:29:50.016Z,100545.41
2018-10-03T01:30:24.812Z,100548.80
2018-10-03T01:30:59.548Z,100550.02
2018-10-03T01:31:34.240Z,100558.79
2018-10-03T01:32:08.886Z,100558.79
2018-10-03T01:32:43.583Z,100552.31
2018-10-03T01:33:18.284Z,100555.44
2018-10-03T01:33:53.028Z,100552.80
2018-10-03T01:34:27.736Z,100548.08
2018-10-03T01:35:02.394Z,100554.95
2018-10-03T01:35:37.075Z,100554.25
2018-10-03T01:36:12.189Z,100558.58
2018-10-03T01:36:46.961Z,100549.48
2018-10-03T01:37:21.648Z,100557.64
2018-10-03T01:37:56.253Z,100551.98
2018-10-03T01:38:30.985Z,100548.50
2018-10-03T01:39:08.216Z,100550.52
2018-10-03T01:39:42.883Z,100553.36
2018-10-03T01:40:17.983Z,100549.48
2018-10-03T01:40:52.994Z,100552.67
2018-10-03T01:41:27.660Z,100562.02
2018-10-03T01:42:02.272Z,100553.00
2018-10-03T01:42:37.076Z,100551.22
2018-10-03T01:43:11.740Z,100547.38
2018-10-03T01:43:46.664Z,100544.95
2018-10-03T01:44:21.427Z,100544.47
2018-10-03T01:44:56.129Z,100549.20
2018-10-03T01:45:30.788Z,100546.89
2018-10-03T01:46:05.424Z,100549.92
2018-10-03T01:46:40.066Z,100549.03
2018-10-03T01:47:14.950Z,100554.61
2018-10-03T01:47:49.672Z,100550.38
2018-10-03T01:48:24.519Z,100554.61
2018-10-03T01:48:59.155Z,100547.05
2018-10-03T01:49:33.780Z,100549.31
2018-10-03T01:50:08.804Z,100545.55
2018-10-03T01:50:43.449Z,100554.05
2018-10-03T01:51:18.282Z,100551.53
2018-10-03T01:51:52.944Z,100556.88
2018-10-03T01:52:27.768Z,100558.89
2018-10-03T01:53:02.437Z,100555.02
2018-10-03T01:53:37.080Z,100551.91
2018-10-03T01:54:11.713Z,100552.03
2018-10-03T01:54:46.386Z,100551.91
2018-10-03T01:55:21.056Z,100551.42
2018-10-03T01:55:55.732Z,100548.78
2018-10-03T01:56:30.745Z,100544.14
2018-10-03T01:57:05.752Z,100552.27
2018-10-03T01:57:40.780Z,100538.64
2018-10-03T01:58:15.395Z,100538.92
2018-10-03T01:58:50.101Z,100533.70
2018-10-03T01:59:24.868Z,100532.00
2018-10-03T01:59:59.547Z,100545.70
2018-10-03T02:00:34.196Z,100536.20
2018-10-03T02:01:08.816Z,100541.42
2018-10-03T02:01:43.738Z,100541.51
2018-10-03T02:02:18.456Z,100538.08
2018-10-03T02:02:53.468Z,100534.15
2018-10-03T02:03:28.261Z,100538.97
2018-10-03T02:04:02.977Z,100542.61
2018-10-03T02:04:37.657Z,100537.67
2018-10-03T02:05:12.341Z,100549.23
2018-10-03T02:05:47.014Z,100550.73
2018-10-03T02:06:21.797Z,100549.39
2018-10-03T02:06:56.892Z,100548.30
2018-10-03T02:07:31.941Z,100551.56
2018-10-03T02:08:07.364Z,100558.60
2018-10-03T02:08:42.154Z,100556.83
2018-10-03T02:09:16.866Z,100547.64
2018-10-03T02:09:51.694Z,100549.02
2018-10-03T02:10:26.417Z,100559.37
2018-10-03T02:11:01.037Z,100549.23
2018-10-03T02:11:36.024Z,100553.80
2018-10-03T02:12:10.639Z,100552.60
2018-10-03T02:12:45.242Z,100549.76
2018-10-03T02:13:19.920Z,100552.39
2018-10-03T02:13:54.612Z,100549.52
2018-10-03T02:14:29.287Z,100553.64
2018-10-03T02:15:04.084Z,100554.34
2018-10-03T02:15:38.963Z,100557.83
2018-10-03T02:16:13.611Z,100547.02
2018-10-03T02:16:48.599Z,100558.84
2018-10-03T02:17:23.305Z,100555.66
2018-10-03T02:17:57.957Z,100562.58
2018-10-03T02:18:32.597Z,100557.89
2018-10-03T02:19:07.387Z,100567.27
2018-10-03T02:19:41.988Z,100564.23
2018-10-03T02:20:16.123Z,100571.19
2018-10-03T02:20:50.929Z,100560.88
2018-10-03T02:21:25.724Z,100558.73
2018-10-03T02:22:00.950Z,100562.53
2018-10-03T02:22:35.567Z,100557.14
2018-10-03T02:23:10.217Z,100555.17
2018-10-03T02:23:44.885Z,100558.69
2018-10-03T02:24:19.848Z,100561.73
2018-10-03T02:24:54.545Z,100563.02
2018-10-03T02:25:29.197Z,100555.70
2018-10-03T02:26:03.826Z,100562.17
2018-10-03T02:26:38.452Z,100562.98
2018-10-03T02:27:13.067Z,100560.79
2018-10-03T02:27:47.722Z,100551.20
2018-10-03T02:28:22.658Z,100559.29
2018-10-03T02:28:56.824Z,100560.27
2018-10-03T02:29:31.500Z,100567.14
2018-10-03T02:30:07.505Z,100553.41
2018-10-03T02:30:42.190Z,100558.14
2018-10-03T02:31:16.884Z,100554.80
2018-10-03T02:31:51.638Z,100554.30
2018-10-03T02:32:26.441Z,100553.45
2018-10-03T02:33:01.049Z,100555.87
2018-10-03T02:33:35.656Z,100547.42
2018-10-03T02:34:10.461Z,100549.61
2018-10-03T02:34:45.054Z,100554.39
2018-10-03T02:35:20.291Z,100549.66
2018-10-03T02:35:54.988Z,100549.21
2018-10-03T02:36:30.234Z,100547.92
2018-10-03T02:37:05.335Z,100551.17
2018-10-03T02:37:39.949Z,100546.98
2018-10-03T02:38:14.564Z,100545.69
2018-10-03T02:38:49.235Z,100543.14
2018-10-03T02:39:23.996Z,100546.63
2018-10-03T02:39:58.659Z,100549.13
2018-10-03T02:40:33.322Z,100553.64
2018-10-03T02:41:07.940Z,100545.73
2018-10-03T02:41:42.534Z,100550.51
2018-10-03T02:42:17.210Z,100550.10
2018-10-03T02:42:51.914Z,100551.48
2018-10-03T02:43:26.623Z,100557.78
2018-10-03T02:44:01.253Z,100554.58
2018-10-03T02:44:35.884Z,100553.85
2018-10-03T02:45:10.563Z,100548.72
2018-10-03T02:45:45.203Z,100549.29
2018-10-03T02:46:20.052Z,100551.80
2018-10-03T02:46:54.901Z,100553.15
2018-10-03T02:47:29.598Z,100546.19
2018-10-03T02:48:04.223Z,100566.63
2018-10-03T02:48:38.833Z,100556.05
2018-10-03T02:49:13.593Z,100554.39
2018-10-03T02:49:48.288Z,100575.63
2018-10-03T02:50:22.922Z,100560.18
2018-10-03T02:50:57.586Z,100560.58
2018-10-03T02:51:32.643Z,100556.30
2018-10-03T02:52:07.288Z,100559.37
2018-10-03T02:52:42.441Z,100556.79
2018-10-03T02:53:17.087Z,100559.94
2018-10-03T02:53:51.819Z,100558.64
2018-10-03T02:54:26.530Z,100560.39
2018-10-03T02:55:01.173Z,100563.85
2018-10-03T02:55:35.888Z,100555.69
2018-10-03T02:56:10.540Z,100554.53
2018-10-03T02:56:45.178Z,100552.92
2018-10-03T02:57:19.942Z,100556.40
2018-10-03T02:57:54.578Z,100555.10
2018-10-03T02:58:29.207Z,100562.66
2018-10-03T02:59:04.792Z,100561.53
2018-10-03T02:59:39.444Z,100551.63
2018-10-03T03:00:14.108Z,100557.73
2018-10-03T03:00:49.025Z,100560.41
2018-10-03T03:01:23.760Z,100561.38
2018-10-03T03:01:58.477Z,100563.13
2018-10-03T03:02:33.069Z,100563.62
2018-10-03T03:03:07.711Z,100560.53
2018-10-03T03:03:42.343Z,100565.76
2018-10-03T03:04:16.994Z,100563.30
2018-10-03T03:04:52.068Z,100577.36
2018-10-03T03:05:26.773Z,100570.81
2018-10-03T03:06:01.413Z,100576.84
2018-10-03T03:06:36.094Z,100576.39
2018-10-03T03:07:10.943Z,100571.78
2018-10-03T03:07:45.562Z,100579.95
2018-10-03T03:08:20.623Z,100575.99
2018-10-03T03:08:55.497Z,100573.48
2018-10-03T03:09:30.342Z,100566.89
2018-10-03T03:10:05.349Z,100565.59
2018-10-03T03:10:40.030Z,100566.04
2018-10-03T03:11:14.930Z,100559.33
2018-10-03T03:11:49.632Z,100566.73
2018-10-03T03:12:24.445Z,100570.13
2018-10-03T03:12:59.083Z,100570.70
2018-10-03T03:13:33.722Z,100570.34
2018-10-03T03:14:08.358Z,100571.59
2018-10-03T03:14:43.376Z,100574.70
2018-10-03T03:15:18.250Z,100568.28
2018-10-03T03:15:52.938Z,100576.00
2018-10-03T03:16:27.577Z,100578.19
2018-10-03T03:17:02.386Z,100579.75
2018-10-03T03:17:37.120Z,100574.83
2018-10-03T03:18:11.783Z,100579.56
2018-10-03T03:18:46.770Z,100574.31
2018-10-03T03:19:21.588Z,100569.85
2018-10-03T03:19:56.268Z,100577.66
2018-10-03T03:20:31.258Z,100575.11
2018-10-03T03:21:05.899Z,100572.56
2018-10-03T03:21:40.628Z,100567.30
2018-10-03T03:22:15.231Z,100569.58
2018-10-03T03:22:50.035Z,100568.36
2018-10-03T03:23:24.681Z,100566.66
2018-10-03T03:23:59.278Z,100567.59
2018-10-03T03:24:34.016Z,100577.19
2018-10-03T03:25:08.648Z,100569.34
2018-10-03T03:25:43.341Z,100572.77
2018-10-03T03:26:17.998Z,100570.14
2018-10-03T03:26:52.670Z,100571.27
2018-10-03T03:27:27.540Z,100583.03
2018-10-03T03:28:02.424Z,100574.47
2018-10-03T03:28:37.174Z,100572.86
2018-10-03T03:29:11.803Z,100568.05
2018-10-03T03:29:46.416Z,100565.94
2018-10-03T03:30:21.189Z,100565.54
2018-10-03T03:30:55.858Z,100570.62
2018-10-03T03:31:30.488Z,100560.72
2018-10-03T03:32:05.358Z,100568.94
2018-10-03T03:32:40.015Z,100565.54
2018-10-03T03:33:15.023Z,100560.69
2018-10-03T03:33:49.819Z,100555.59
2018-10-03T03:34:24.949Z,100557.24
2018-10-03T03:34:59.591Z,100558.98
2018-10-03T03:35:34.275Z,100558.05
2018-10-03T03:36:08.896Z,100562.66
2018-10-03T03:36:43.622Z,100558.78
2018-10-03T03:37:18.593Z,100556.88
2018-10-03T03:37:53.477Z,100557.77
2018-10-03T03:38:28.197Z,100567.15
2018-10-03T03:39:02.951Z,100559.67
2018-10-03T03:39:37.641Z,100567.52
2018-10-03T03:40:12.413Z,100561.61
2018-10-03T03:40:47.167Z,100563.88
2018-10-03T03:41:21.837Z,100567.76
2018-10-03T03:41:56.595Z,100567.00
2018-10-03T03:42:31.267Z,100570.03
2018-10-03T03:43:05.952Z,100568.85
2018-10-03T03:43:40.615Z,100573.63
2018-10-03T03:44:15.280Z,100570.79
2018-10-03T03:44:49.996Z,100575.97
2018-10-03T03:45:24.796Z,100579.00
2018-10-03T03:45:59.473Z,100569.94
2018-10-03T03:46:34.224Z,100576.98
2018-10-03T03:47:08.913Z,100571.92
2018-10-03T03:47:43.629Z,100580.34
2018-10-03T03:48:18.419Z,100577.26
2018-10-03T03:48:53.252Z,100572.94
2018-10-03T03:49:27.994Z,100568.73
2018-10-03T03:50:02.641Z,100573.55
2018-10-03T03:50:37.400Z,100577.43
2018-10-03T03:51:12.118Z,100576.61
2018-10-03T03:51:46.888Z,100567.23
2018-10-03T03:52:21.540Z,100570.47
2018-10-03T03:52:56.312Z,100573.63
2018-10-03T03:53:30.928Z,100576.70
2018-10-03T03:54:05.559Z,100578.97
2018-10-03T03:54:40.171Z,100576.90
2018-10-03T03:55:14.809Z,100580.77
2018-10-03T03:55:49.552Z,100582.11
2018-10-03T03:56:24.382Z,100582.56
2018-10-03T03:56:59.349Z,100580.38
2018-10-03T03:57:34.016Z,100585.99
2018-10-03T03:58:08.716Z,100585.23
2018-10-03T03:58:43.398Z,100580.66
2018-10-03T03:59:18.199Z,100594.45
2018-10-03T03:59:52.866Z,100587.24
2018-10-03T04:00:27.614Z,100591.16
2018-10-03T04:01:02.306Z,100589.87
2018-10-03T04:01:36.946Z,100588.63
2018-10-03T04:02:11.612Z,100586.36
2018-10-03T04:02:46.578Z,100588.53
2018-10-03T04:03:21.434Z,100587.45
2018-10-03T04:03:56.136Z,100593.52
2018-10-03T04:04:30.784Z,100597.76
2018-10-03T04:05:05.909Z,100597.23
2018-10-03T04:05:40.855Z,100589.14
2018-10-03T04:06:16.504Z,100597.16
2018-10-03T04:06:51.449Z,100595.21
2018-10-03T04:07:26.233Z,100599.58
2018-10-03T04:08:00.869Z,100595.66
2018-10-03T04:08:35.823Z,100606.86
2018-10-03T04:09:10.524Z,100597.84
2018-10-03T04:09:45.375Z,100597.39
2018-10-03T04:10:20.172Z,100603.42
2018-10-03T04:10:55.032Z,100608.55
2018-10-03T04:11:30.132Z,100606.73
2018-10-03T04:12:04.793Z,100605.84
2018-10-03T04:12:39.492Z,100603.37
2018-10-03T04:13:14.178Z,100608.80
2018-10-03T04:13:48.851Z,100606.58
2018-10-03T04:14:23.585Z,100606.21
2018-10-03T04:14:58.298Z,100600.72
2018-10-03T04:15:33.012Z,100608.48
2018-10-03T04:16:08.104Z,100607.26
2018-10-03T04:16:42.773Z,100602.53
2018-10-03T04:17:17.488Z,100610.25
2018-10-03T04:17:52.304Z,100611.98
2018-10-03T04:18:26.992Z,100619.30
2018-10-03T04:19:01.907Z,100620.80
2018-10-03T04:19:36.536Z,100617.70
2018-10-03T04:20:11.286Z,100622.30
2018-10-03T04:20:45.941Z,100621.91
2018-10-03T04:21:24.859Z,100624.25
2018-10-03T04:21:59.484Z,100619.96
2018-10-03T04:22:34.120Z,100618.67
2018-10-03T04:23:08.277Z,100626.84
2018-10-03T04:23:42.998Z,100625.09
2018-10-03T04:24:17.754Z,100625.83
2018-10-03T04:24:52.602Z,100625.50
2018-10-03T04:25:27.644Z,100629.71
2018-10-03T04:26:02.712Z,100628.58
2018-10-03T04:26:37.188Z,100628.77
2018-10-03T04:27:11.353Z,100627.48
2018-10-03T04:27:45.703Z,100630.96
2018-10-03T04:28:19.936Z,100629.38
2018-10-03T04:28:54.679Z,100628.17
2018-10-03T04:29:29.329Z,100628.17
2018-10-03T04:30:04.308Z,100633.75
2018-10-03T04:30:38.959Z,100634.60
2018-10-03T04:31:13.700Z,100637.83
2018-10-03T04:31:48.464Z,100636.66
2018-10-03T04:32:23.293Z,100639.81
2018-10-03T04:32:58.118Z,100637.14
2018-10-03T04:33:32.787Z,100637.83
2018-10-03T04:34:07.469Z,100640.33
2018-10-03T04:34:42.176Z,100639.57
2018-10-03T04:35:17.274Z,100638.48
2018-10-03T04:35:52.139Z,100645.52
2018-10-03T04:36:27.319Z,100642.93
2018-10-03T04:37:01.975Z,100644.22
2018-10-03T04:37:36.617Z,100641.52
2018-10-03T04:38:11.240Z,100646.85
2018-10-03T04:38:46.216Z,100641.88
2018-10-03T04:39:21.009Z,100645.76
2018-10-03T04:39:55.813Z,100645.36
2018-10-03T04:40:30.642Z,100653.16
2018-10-03T04:41:05.324Z,100646.73
2018-10-03T04:41:39.929Z,100643.02
2018-10-03T04:42:14.647Z,100641.96
2018-10-03T04:42:49.505Z,100646.41
2018-10-03T04:43:24.136Z,100642.81
2018-10-03T04:43:59.144Z,100643.98
2018-10-03T04:44:33.789Z,100644.06
2018-10-03T04:45:08.440Z,100645.20
2018-10-03T04:45:43.129Z,100645.52
2018-10-03T04:46:17.807Z,100635.36
2018-10-03T04:46:52.678Z,100643.21
2018-10-03T04:47:27.338Z,100636.94
2018-10-03T04:48:01.966Z,100644.37
2018-10-03T04:48:36.597Z,100646.36
2018-10-03T04:49:11.362Z,100640.18
2018-10-03T04:49:46.122Z,100644.59
2018-10-03T04:50:20.804Z,100642.93
2018-10-03T04:50:55.517Z,100644.87
2018-10-03T04:51:30.177Z,100641.83
2018-10-03T04:52:04.888Z,100646.66
2018-10-03T04:52:39.678Z,100642.16
2018-10-03T04:53:14.333Z,100644.42
2018-10-03T04:53:49.386Z,100642.23
2018-10-03T04:54:23.647Z,100632.45
2018-10-03T04:54:58.467Z,100639.81
2018-10-03T04:55:33.127Z,100638.23
2018-10-03T04:56:07.901Z,100632.25
2018-10-03T04:56:42.646Z,100637.23
2018-10-03T04:57:17.456Z,100639.05
2018-10-03T04:57:52.125Z,100637.43
2018-10-03T04:58:26.836Z,100638.32
2018-10-03T04:59:01.502Z,100640.02
2018-10-03T04:59:36.307Z,100637.67
2018-10-03T05:00:10.945Z,100639.12
2018-10-03T05:00:45.624Z,100638.13
2018-10-03T05:01:20.332Z,100641.07
2018-10-03T05:01:55.067Z,100628.28
2018-10-03T05:02:29.713Z,100636.02
2018-10-03T05:03:03.904Z,100636.05
2018-10-03T05:03:38.604Z,100632.66
2018-10-03T05:04:13.253Z,100644.51
2018-10-03T05:04:47.884Z,100642.61
2018-10-03T05:05:22.647Z,100639.53
2018-10-03T05:05:57.356Z,100641.43
2018-10-03T05:06:32.068Z,100637.63
2018-10-03T05:07:06.703Z,100642.00
2018-10-03T05:07:41.359Z,100637.30
2018-10-03T05:08:16.012Z,100636.34
2018-10-03T05:08:50.832Z,100641.19
2018-10-03T05:09:25.605Z,100639.12
2018-10-03T05:10:00.272Z,100641.43
2018-10-03T05:10:34.915Z,100635.85
2018-10-03T05:11:09.643Z,100633.55
2018-10-03T05:11:44.468Z,100638.52
2018-10-03T05:12:19.161Z,100639.05
2018-10-03T05:12:54.221Z,100640.83
2018-10-03T05:13:28.901Z,100634.36
2018-10-03T05:14:04.036Z,100643.86
2018-10-03T05:14:38.666Z,100641.67
2018-10-03T05:15:13.285Z,100636.98
2018-10-03T05:15:48.436Z,100645.52
2018-10-03T05:16:23.162Z,100635.25
2018-10-03T05:16:58.468Z,100640.38
2018-10-03T05:17:33.126Z,100642.36
2018-10-03T05:18:07.732Z,100640.22
2018-10-03T05:18:42.693Z,100640.34
2018-10-03T05:19:17.371Z,100638.52
2018-10-03T05:19:52.163Z,100640.27
2018-10-03T05:20:26.936Z,100635.31
2018-10-03T05:21:01.603Z,100639.40
2018-10-03T05:21:36.881Z,100639.04
2018-10-03T05:22:11.624Z,100637.95
2018-10-03T05:22:46.300Z,100639.25
2018-10-03T05:23:21.132Z,100651.18
2018-10-03T05:23:55.773Z,100641.31
2018-10-03T05:24:30.440Z,100648.63
2018-10-03T05:25:05.680Z,100642.28
2018-10-03T05:25:40.381Z,100648.75
2018-10-03T05:26:15.050Z,100647.55
2018-10-03T05:26:50.402Z,100647.02
2018-10-03T05:27:25.158Z,100642.28
2018-10-03T05:27:59.838Z,100647.34
2018-10-03T05:28:34.678Z,100649.04
2018-10-03T05:29:09.320Z,100648.95
2018-10-03T05:29:44.255Z,100655.02
2018-10-03T05:30:18.993Z,100657.70
2018-10-03T05:30:53.723Z,100662.50
2018-10-03T05:31:28.517Z,100658.22
2018-10-03T05:32:03.167Z,100657.50
2018-10-03T05:32:37.788Z,100656.72
2018-10-03T05:33:12.455Z,100660.53
2018-10-03T05:33:47.419Z,100661.34
2018-10-03T05:34:22.216Z,100660.64
2018-10-03T05:34:56.492Z,100668.70
2018-10-03T05:35:30.661Z,100661.78
2018-10-03T05:36:05.316Z,100663.64
2018-10-03T05:36:39.919Z,100668.30
2018-10-03T05:37:14.559Z,100662.63
2018-10-03T05:37:49.276Z,100674.64
2018-10-03T05:38:24.008Z,100667.12
2018-10-03T05:38:58.734Z,100663.03
2018-10-03T05:39:33.628Z,100663.80
2018-10-03T05:40:08.446Z,100668.90
2018-10-03T05:40:43.149Z,100673.19
2018-10-03T05:41:18.028Z,100664.13
2018-10-03T05:41:52.764Z,100671.57
2018-10-03T05:42:27.543Z,100670.39
2018-10-03T05:43:01.927Z,100669.91
2018-10-03T05:43:36.623Z,100680.55
2018-10-03T05:44:11.852Z,100674.67
2018-10-03T05:44:46.560Z,100672.49
2018-10-03T05:45:21.379Z,100679.25
2018-10-03T05:45:56.107Z,100680.26
2018-10-03T05:46:30.807Z,100681.59
2018-10-03T05:47:05.672Z,100680.78
2018-10-03T05:47:40.317Z,100679.78
2018-10-03T05:48:15.012Z,100684.27
2018-10-03T05:48:50.084Z,100688.80
2018-10-03T05:49:25.008Z,100690.29
2018-10-03T05:49:59.670Z,100684.82
2018-10-03T05:50:34.329Z,100692.03
2018-10-03T05:51:08.993Z,100697.36
2018-10-03T05:51:43.643Z,100693.03
2018-10-03T05:52:18.310Z,100690.92
2018-10-03T05:52:53.155Z,100692.26
2018-10-03T05:53:27.815Z,100698.05
2018-10-03T05:54:02.443Z,100701.49
2018-10-03T05:54:37.120Z,100699.91
2018-10-03T05:55:11.961Z,100703.83
2018-10-03T05:55:46.594Z,100709.73
2018-10-03T05:56:21.377Z,100707.36
2018-10-03T05:56:56.164Z,100713.59
2018-10-03T05:57:30.825Z,100713.31
2018-10-03T05:58:05.512Z,100708.78
2018-10-03T05:58:40.179Z,100714.41
2018-10-03T05:59:14.810Z,100712.42
2018-10-03T05:59:49.558Z,100718.73
2018-10-03T06:00:24.350Z,100714.05
2018-10-03T06:00:58.999Z,100724.36
2018-10-03T06:01:33.750Z,100709.42
2018-10-03T06:02:08.374Z,100723.42
2018-10-03T06:02:43.056Z,100721.69
2018-10-03T06:03:18.128Z,100723.91
2018-10-03T06:03:53.116Z,100721.44
2018-10-03T06:04:27.785Z,100726.31
2018-10-03T06:05:02.436Z,100728.05
2018-10-03T06:05:37.549Z,100728.05
2018-10-03T06:06:12.257Z,100727.23
2018-10-03T06:06:46.888Z,100726.23
2018-10-03T06:07:21.667Z,100730.70
2018-10-03T06:07:56.515Z,100727.27
2018-10-03T06:08:31.268Z,100724.23
2018-10-03T06:09:09.395Z,100722.26
2018-10-03T06:09:44.132Z,100725.91
2018-10-03T06:10:18.833Z,100719.23
2018-10-03T06:10:53.644Z,100722.99
2018-10-03T06:11:28.420Z,100726.52
2018-10-03T06:12:03.286Z,100728.66
2018-10-03T06:12:38.088Z,100727.69
2018-10-03T06:13:12.735Z,100723.20
2018-10-03T06:13:47.392Z,100729.59
2018-10-03T06:14:22.224Z,100728.62
2018-10-03T06:14:56.911Z,100734.05
2018-10-03T06:15:31.690Z,100732.17
2018-10-03T06:16:06.563Z,100730.55
2018-10-03T06:16:41.328Z,100730.92
2018-10-03T06:17:16.007Z,100735.66
2018-10-03T06:17:51.590Z,100728.49
2018-10-03T06:18:26.318Z,100732.25
2018-10-03T06:19:01.170Z,100739.13
2018-10-03T06:19:35.809Z,100745.41
2018-10-03T06:20:10.456Z,100742.33
2018-10-03T06:20:45.108Z,100748.44
2018-10-03T06:21:19.824Z,100750.14
2018-10-03T06:21:54.500Z,100749.78
2018-10-03T06:22:29.305Z,100746.86
2018-10-03T06:23:03.468Z,100750.30
2018-10-03T06:23:38.138Z,100749.25
2018-10-03T06:24:12.806Z,100747.34
2018-10-03T06:24:47.455Z,100746.50
2018-10-03T06:25:22.382Z,100749.94
2018-10-03T06:25:57.089Z,100756.41
2018-10-03T06:26:31.841Z,100755.71
2018-10-03T06:27:06.743Z,100757.50
2018-10-03T06:27:41.437Z,100761.59
2018-10-03T06:28:16.368Z,100766.09
2018-10-03T06:28:51.686Z,100765.04
2018-10-03T06:29:26.762Z,100760.22
2018-10-03T06:30:02.306Z,100764.36
2018-10-03T06:30:36.935Z,100760.91
2018-10-03T06:31:11.585Z,100760.67
2018-10-03T06:31:46.809Z,100755.37
2018-10-03T06:32:21.508Z,100756.18
2018-10-03T06:32:56.241Z,100746.83
2018-10-03T06:33:30.898Z,100756.30
2018-10-03T06:34:05.731Z,100751.48
2018-10-03T06:34:40.420Z,100756.09
2018-10-03T06:35:15.632Z,100752.05
2018-10-03T06:35:51.138Z,100761.40
2018-10-03T06:36:26.294Z,100767.27